createdAt,value
2022-12-15T00:02:18.042Z,13.65
2022-12-15T00:05:03.424Z,14.27
2022-12-15T00:07:48.917Z,14.00
2022-12-15T00:10:34.382Z,14.45
2022-12-15T00:13:19.776Z,12.90
2022-12-15T00:16:07.874Z,13.60
2022-12-15T00:18:53.172Z,13.05
2022-12-15T00:21:38.574Z,12.45
2022-12-15T00:24:24.344Z,18.10
2022-12-15T00:27:10.266Z,19.30
2022-12-15T00:29:55.591Z,16.98
2022-12-15T00:32:41.620Z,13.80
2022-12-15T00:35:27.586Z,14.60
2022-12-15T00:38:13.182Z,13.13
2022-12-15T00:40:40.088Z,13.82
2022-12-15T00:43:11.724Z,15.20
2022-12-15T00:46:02.065Z,14.13
2022-12-15T00:48:28.774Z,13.90
2022-12-15T00:50:55.452Z,13.57
2022-12-15T00:53:42.591Z,13.98
2022-12-15T00:56:28.943Z,13.07
2022-12-15T00:59:15.028Z,11.23
2022-12-15T01:02:00.844Z,11.93
2022-12-15T01:04:47.033Z,10.35
2022-12-15T01:07:32.750Z,12.00
2022-12-15T01:10:18.274Z,12.82
2022-12-15T01:13:04.864Z,12.70
2022-12-15T01:15:51.091Z,16.40
2022-12-15T01:18:36.407Z,12.50
2022-12-15T01:21:05.728Z,14.75
2022-12-15T01:23:33.831Z,13.63
2022-12-15T01:26:01.318Z,14.40
2022-12-15T01:28:28.468Z,14.07
2022-12-15T01:30:55.276Z,14.23
2022-12-15T01:33:22.707Z,15.70
2022-12-15T01:36:01.902Z,12.90
2022-12-15T01:38:29.297Z,12.52
2022-12-15T01:41:02.792Z,12.20
2022-12-15T01:43:32.680Z,14.70
2022-12-15T01:46:16.042Z,12.52
2022-12-15T01:49:15.143Z,13.13
2022-12-15T01:51:47.401Z,14.57
2022-12-15T01:54:26.841Z,15.05
2022-12-15T01:57:00.812Z,13.27
2022-12-15T01:59:32.789Z,13.07
2022-12-15T02:01:59.729Z,13.98
2022-12-15T02:04:26.817Z,14.40
2022-12-15T02:06:53.686Z,13.57
2022-12-15T02:09:22.617Z,11.63
2022-12-15T02:12:00.886Z,12.48
2022-12-15T02:14:50.266Z,13.13
2022-12-15T02:17:47.026Z,12.02
2022-12-15T02:20:19.510Z,14.95
2022-12-15T02:22:48.955Z,14.57
2022-12-15T02:25:53.082Z,12.10
2022-12-15T02:29:01.837Z,13.98
2022-12-15T02:31:54.636Z,14.63
2022-12-15T02:34:29.678Z,12.45
2022-12-15T02:37:03.882Z,11.30
2022-12-15T02:39:30.964Z,17.90
2022-12-15T02:41:57.813Z,13.55
2022-12-15T02:45:01.561Z,12.65
2022-12-15T02:47:38.798Z,12.75
2022-12-15T02:53:11.304Z,10.88
2022-12-15T02:55:54.588Z,12.63
2022-12-15T02:58:33.817Z,10.88
2022-12-15T03:01:16.569Z,10.55
2022-12-15T03:03:45.409Z,10.93
2022-12-15T03:06:12.311Z,9.80
2022-12-15T03:08:38.977Z,9.23
2022-12-15T03:11:05.744Z,11.27
2022-12-15T03:16:00.688Z,8.93
2022-12-15T03:18:27.384Z,10.48
2022-12-15T03:20:54.070Z,9.43
2022-12-15T03:25:50.359Z,9.55
2022-12-15T03:28:17.700Z,10.20
2022-12-15T03:30:44.757Z,12.98
2022-12-15T03:33:11.643Z,11.25
2022-12-15T03:38:05.016Z,11.05
2022-12-15T03:42:58.810Z,11.15
2022-12-15T03:45:26.954Z,11.20
2022-12-15T03:47:55.163Z,10.70
2022-12-15T03:50:24.629Z,10.18
2022-12-15T03:53:02.315Z,9.70
2022-12-15T03:55:29.966Z,10.27
2022-12-15T03:57:57.514Z,9.05
2022-12-15T04:00:24.686Z,8.52
2022-12-15T04:02:51.788Z,9.35
2022-12-15T04:05:26.179Z,9.65
2022-12-15T04:07:54.340Z,9.23
2022-12-15T04:10:21.492Z,10.02
2022-12-15T04:12:48.263Z,9.93
2022-12-15T04:17:42.055Z,10.27
2022-12-15T04:20:09.252Z,9.52
2022-12-15T04:22:44.546Z,10.32
2022-12-15T04:25:38.208Z,9.70
2022-12-15T04:28:23.828Z,11.23
2022-12-15T04:31:19.185Z,12.50
2022-12-15T04:34:08.141Z,10.70
2022-12-15T04:36:55.258Z,10.77
2022-12-15T04:39:41.240Z,20.15
2022-12-15T04:42:26.768Z,13.85
2022-12-15T04:45:20.645Z,12.68
2022-12-15T04:48:06.703Z,13.82
2022-12-15T04:50:52.279Z,13.35
2022-12-15T04:53:38.337Z,12.70
2022-12-15T04:56:28.173Z,11.70
2022-12-15T04:59:13.669Z,12.43
2022-12-15T05:01:59.250Z,14.93
2022-12-15T05:04:44.641Z,11.50
2022-12-15T05:07:29.897Z,15.60
2022-12-15T05:10:15.621Z,13.85
2022-12-15T05:13:01.642Z,12.80
2022-12-15T05:15:47.476Z,10.68
2022-12-15T05:18:32.858Z,13.23
2022-12-15T05:21:18.316Z,14.90
2022-12-15T05:24:03.993Z,14.20
2022-12-15T05:26:53.015Z,13.02
2022-12-15T05:29:39.344Z,13.80
2022-12-15T05:32:07.258Z,14.32
2022-12-15T05:34:35.636Z,15.07
2022-12-15T05:37:04.679Z,16.13
2022-12-15T05:39:31.547Z,13.95
2022-12-15T05:41:58.355Z,13.43
2022-12-15T05:46:52.993Z,15.10
2022-12-15T05:49:20.461Z,12.13
2022-12-15T05:51:48.404Z,11.13
2022-12-15T05:54:18.703Z,12.38
2022-12-15T05:56:46.285Z,28.55
2022-12-15T05:59:13.051Z,11.65
2022-12-15T06:01:39.957Z,13.32
2022-12-15T06:04:07.462Z,13.25
2022-12-15T06:06:34.632Z,13.80
2022-12-15T06:09:01.394Z,11.52
2022-12-15T06:13:55.907Z,14.30
2022-12-15T06:16:24.975Z,14.07
2022-12-15T06:18:58.764Z,16.48
2022-12-15T06:21:35.792Z,13.07
2022-12-15T06:24:06.782Z,13.95
2022-12-15T06:26:36.679Z,24.13
2022-12-15T06:29:08.414Z,30.88
2022-12-15T06:31:36.035Z,11.63
2022-12-15T06:34:07.610Z,11.93
2022-12-15T06:36:34.857Z,10.75
2022-12-15T06:39:04.176Z,8.63
2022-12-15T06:41:31.647Z,10.68
2022-12-15T06:43:59.245Z,10.48
2022-12-15T06:46:27.833Z,11.25
2022-12-15T06:48:54.934Z,9.77
2022-12-15T06:51:21.608Z,10.00
2022-12-15T06:53:54.065Z,11.90
2022-12-15T06:56:27.071Z,11.90
2022-12-15T06:58:58.664Z,14.48
2022-12-15T07:01:25.984Z,13.98
2022-12-15T07:03:54.022Z,15.73
2022-12-15T07:06:20.966Z,12.77
2022-12-15T07:08:53.246Z,22.42
2022-12-15T07:11:21.402Z,14.93
2022-12-15T07:13:52.746Z,14.20
2022-12-15T07:16:21.382Z,10.90
2022-12-15T07:18:48.309Z,9.85
2022-12-15T07:21:15.197Z,18.90
2022-12-15T07:23:58.048Z,10.25
2022-12-15T07:26:25.929Z,12.60
2022-12-15T07:28:53.745Z,13.20
2022-12-15T07:31:21.376Z,12.65
2022-12-15T07:33:48.501Z,13.82
2022-12-15T07:36:15.951Z,20.25
2022-12-15T07:38:42.768Z,10.90
2022-12-15T07:41:09.994Z,17.33
2022-12-15T07:43:37.446Z,12.88
2022-12-15T07:46:05.698Z,16.65
2022-12-15T07:48:33.279Z,15.38
2022-12-15T07:51:15.219Z,14.88
2022-12-15T07:53:44.031Z,14.52
2022-12-15T07:58:38.650Z,28.58
2022-12-15T08:01:07.658Z,20.60
2022-12-15T08:03:36.229Z,22.75
2022-12-15T08:06:05.426Z,25.60
2022-12-15T08:08:33.112Z,18.10
2022-12-15T08:11:11.215Z,14.02
2022-12-15T08:16:26.223Z,17.88
2022-12-15T08:18:53.148Z,19.65
2022-12-15T08:21:20.158Z,13.75
2022-12-15T08:23:47.071Z,32.28
2022-12-15T08:26:17.314Z,15.25
2022-12-15T08:28:44.694Z,19.92
2022-12-15T08:31:19.852Z,20.63
2022-12-15T08:33:47.822Z,18.50
2022-12-15T08:36:16.689Z,16.27
2022-12-15T08:38:45.439Z,15.65
2022-12-15T08:41:15.969Z,15.68
2022-12-15T08:43:48.069Z,43.45
2022-12-15T08:46:22.355Z,27.40
2022-12-15T08:48:49.720Z,14.52
2022-12-15T08:51:17.424Z,22.42
2022-12-15T08:53:44.437Z,22.85
2022-12-15T08:56:15.634Z,20.25
2022-12-15T08:58:42.851Z,19.95
2022-12-15T09:01:22.977Z,17.00
2022-12-15T09:03:52.290Z,17.27
2022-12-15T09:06:28.110Z,23.85
2022-12-15T09:08:56.464Z,20.90
2022-12-15T09:11:24.568Z,18.52
2022-12-15T09:13:51.378Z,18.80
2022-12-15T09:18:47.742Z,17.48
2022-12-15T09:21:15.729Z,17.25
2022-12-15T09:23:42.937Z,22.02
2022-12-15T09:26:16.769Z,16.08
2022-12-15T09:28:43.662Z,19.05
2022-12-15T09:31:14.057Z,24.48
2022-12-15T09:33:42.230Z,19.73
2022-12-15T09:36:10.301Z,16.80
2022-12-15T09:38:38.182Z,24.17
2022-12-15T09:41:17.385Z,15.88
2022-12-15T09:44:21.097Z,33.83
2022-12-15T09:46:55.628Z,16.38
2022-12-15T09:49:40.676Z,24.15
2022-12-15T09:52:12.735Z,17.08
2022-12-15T09:54:43.272Z,16.77
2022-12-15T09:57:36.583Z,17.55
2022-12-15T10:00:22.164Z,15.50
2022-12-15T10:03:13.949Z,16.63
2022-12-15T10:06:21.436Z,19.13
2022-12-15T10:08:53.801Z,19.13
2022-12-15T10:11:50.268Z,17.38
2022-12-15T10:14:34.697Z,27.35
2022-12-15T10:17:23.898Z,16.80
2022-12-15T10:20:02.407Z,16.77
2022-12-15T10:22:35.097Z,17.52
2022-12-15T10:25:27.612Z,16.00
2022-12-15T10:27:56.768Z,19.20
2022-12-15T10:33:19.219Z,18.13
2022-12-15T10:35:47.080Z,20.58
2022-12-15T10:38:33.053Z,19.17
2022-12-15T10:41:21.688Z,20.80
2022-12-15T10:43:51.507Z,17.40
2022-12-15T10:46:19.570Z,17.63
2022-12-15T10:48:49.754Z,18.98
2022-12-15T10:51:24.853Z,18.77
2022-12-15T10:54:00.527Z,17.83
2022-12-15T10:56:33.671Z,17.60
2022-12-15T10:59:04.102Z,16.83
2022-12-15T11:01:35.453Z,19.77
2022-12-15T11:04:02.821Z,17.67
2022-12-15T11:06:32.341Z,18.85
2022-12-15T11:09:33.401Z,18.38
2022-12-15T11:12:19.118Z,17.27
2022-12-15T11:14:51.231Z,20.35
2022-12-15T11:17:22.265Z,23.95
2022-12-15T11:22:51.638Z,19.27
2022-12-15T11:25:30.068Z,21.20
2022-12-15T11:27:59.942Z,16.38
2022-12-15T11:30:33.612Z,17.55
2022-12-15T11:33:01.281Z,17.63
2022-12-15T11:35:52.708Z,16.90
2022-12-15T11:38:19.782Z,22.90
2022-12-15T11:40:46.395Z,22.00
2022-12-15T11:43:26.776Z,19.35
2022-12-15T11:46:18.124Z,18.73
2022-12-15T11:49:00.124Z,19.70
2022-12-15T11:54:42.168Z,20.27
2022-12-15T11:57:22.984Z,21.73
2022-12-15T12:00:08.893Z,20.63
2022-12-15T12:03:07.807Z,22.38
2022-12-15T12:05:50.254Z,19.00
2022-12-15T12:08:29.933Z,19.08
2022-12-15T12:11:13.817Z,19.98
2022-12-15T12:14:09.704Z,23.33
2022-12-15T12:17:06.205Z,21.23
2022-12-15T12:20:31.533Z,20.65
2022-12-15T12:23:05.497Z,23.73
2022-12-15T12:25:41.397Z,22.48
2022-12-15T12:28:22.733Z,22.98
2022-12-15T12:30:50.369Z,22.27
2022-12-15T12:33:35.191Z,23.88
2022-12-15T12:36:11.617Z,23.90
2022-12-15T12:38:50.523Z,23.70
2022-12-15T12:41:44.332Z,25.05
2022-12-15T12:44:36.392Z,24.00
2022-12-15T12:47:20.098Z,22.13
2022-12-15T12:50:00.201Z,24.33
2022-12-15T12:52:31.208Z,23.63
2022-12-15T12:55:36.597Z,28.48
2022-12-15T12:58:03.442Z,27.58
2022-12-15T13:00:32.153Z,23.88
2022-12-15T13:03:16.411Z,23.88
2022-12-15T13:05:45.585Z,25.25
2022-12-15T13:08:15.631Z,31.98
2022-12-15T13:13:29.875Z,25.58
2022-12-15T13:16:20.237Z,23.48
2022-12-15T13:19:06.699Z,23.83
2022-12-15T13:21:45.421Z,37.53
2022-12-15T13:24:29.650Z,26.48
2022-12-15T13:27:17.208Z,24.38
2022-12-15T13:30:15.219Z,40.03
2022-12-15T13:32:45.305Z,27.23
2022-12-15T13:35:12.253Z,26.48
2022-12-15T13:37:42.339Z,29.38
2022-12-15T13:40:33.745Z,27.35
2022-12-15T13:43:06.180Z,26.80
2022-12-15T13:45:48.613Z,40.15
2022-12-15T13:48:35.453Z,30.80
2022-12-15T13:51:27.609Z,34.22
2022-12-15T13:54:15.426Z,31.52
2022-12-15T13:56:51.004Z,45.53
2022-12-15T13:59:40.638Z,34.58
2022-12-15T14:02:35.388Z,30.17
2022-12-15T14:05:21.121Z,33.42
2022-12-15T14:07:57.304Z,31.70
2022-12-15T14:10:40.039Z,31.13
2022-12-15T14:13:24.295Z,32.63
2022-12-15T14:15:55.812Z,37.70
2022-12-15T14:18:29.888Z,30.95
2022-12-15T14:20:57.746Z,32.55
2022-12-15T14:23:30.250Z,32.28
2022-12-15T14:26:08.331Z,45.22
2022-12-15T14:28:37.632Z,33.65
2022-12-15T14:31:09.961Z,31.23
2022-12-15T14:33:40.107Z,51.55
2022-12-15T14:36:10.459Z,34.03
2022-12-15T14:38:50.105Z,45.70
2022-12-15T14:41:23.176Z,46.10
2022-12-15T14:44:36.784Z,38.15
2022-12-15T14:46:38.310Z,37.17
2022-12-15T14:49:07.882Z,48.22
2022-12-15T14:51:44.369Z,43.33
2022-12-15T14:54:36.192Z,33.22
2022-12-15T14:57:14.672Z,33.20
2022-12-15T14:59:44.616Z,33.78
2022-12-15T15:02:13.093Z,80.65
2022-12-15T15:03:11.017Z,21.88
2022-12-15T15:03:11.589Z,19.67
2022-12-15T15:04:40.599Z,63.75
2022-12-15T15:07:17.823Z,35.42
2022-12-15T15:09:46.572Z,42.28
2022-12-15T15:12:17.198Z,39.15
2022-12-15T15:14:53.710Z,40.42
2022-12-15T15:17:27.085Z,33.37
2022-12-15T15:20:00.908Z,59.40
2022-12-15T15:22:36.881Z,44.80
2022-12-15T15:25:19.813Z,41.30
2022-12-15T15:27:46.556Z,38.42
2022-12-15T15:32:58.493Z,38.83
2022-12-15T15:35:31.293Z,40.00
2022-12-15T15:38:16.676Z,41.97
2022-12-15T15:40:48.449Z,54.30
2022-12-15T15:43:16.361Z,38.13
2022-12-15T15:45:43.430Z,33.63
2022-12-15T15:48:16.864Z,50.35
2022-12-15T15:50:44.864Z,35.53
2022-12-15T15:53:17.868Z,35.80
2022-12-15T15:55:45.197Z,52.90
2022-12-15T15:58:12.837Z,50.97
2022-12-15T16:00:40.222Z,34.30
2022-12-15T16:03:07.632Z,42.58
2022-12-15T16:05:35.668Z,42.72
2022-12-15T16:08:03.774Z,44.08
2022-12-15T16:10:30.579Z,41.38
2022-12-15T16:15:27.665Z,36.63
2022-12-15T16:17:55.041Z,36.03
2022-12-15T16:20:23.668Z,45.55
2022-12-15T16:22:57.186Z,67.57
2022-12-15T16:25:41.232Z,83.53
2022-12-15T16:28:16.112Z,43.72
2022-12-15T16:30:43.792Z,47.17
2022-12-15T16:33:11.949Z,44.58
2022-12-15T16:35:40.517Z,50.13
2022-12-15T16:38:14.373Z,46.33
2022-12-15T16:40:41.181Z,58.35
2022-12-15T16:45:44.749Z,60.63
2022-12-15T16:48:12.692Z,52.40
2022-12-15T16:50:42.751Z,42.05
2022-12-15T16:53:17.955Z,69.53
2022-12-15T16:55:45.695Z,44.50
2022-12-15T16:58:17.223Z,71.50
2022-12-15T17:00:45.085Z,51.63
2022-12-15T17:03:16.810Z,81.13
2022-12-15T17:05:48.151Z,52.35
2022-12-15T17:08:25.582Z,57.95
2022-12-15T17:10:52.500Z,78.72
2022-12-15T17:13:37.633Z,58.30
2022-12-15T17:16:06.576Z,66.68
2022-12-15T17:18:34.210Z,48.13
2022-12-15T17:21:17.129Z,60.35
2022-12-15T17:23:47.512Z,47.08
2022-12-15T17:26:29.703Z,51.15
2022-12-15T17:29:05.896Z,47.20
2022-12-15T17:31:35.701Z,46.28
2022-12-15T17:34:27.382Z,46.17
2022-12-15T17:36:54.953Z,46.92
2022-12-15T17:39:22.796Z,44.22
2022-12-15T17:41:59.931Z,42.35
2022-12-15T17:44:36.794Z,47.40
2022-12-15T17:47:07.230Z,42.13
2022-12-15T17:49:37.233Z,43.35
2022-12-15T17:52:27.768Z,42.50
2022-12-15T17:54:55.397Z,38.17
2022-12-15T17:57:22.092Z,39.70
2022-12-15T18:02:15.894Z,36.67
2022-12-15T18:04:43.218Z,36.55
2022-12-15T18:07:22.182Z,34.60
2022-12-15T18:09:52.886Z,35.35
2022-12-15T18:12:22.801Z,33.90
2022-12-15T18:14:50.212Z,32.15
2022-12-15T18:17:17.102Z,34.22
2022-12-15T18:19:43.778Z,34.00
2022-12-15T18:22:22.373Z,32.95
2022-12-15T18:24:50.904Z,35.92
2022-12-15T18:27:25.060Z,33.90
2022-12-15T18:29:52.491Z,33.70
2022-12-15T18:32:21.932Z,33.20
2022-12-15T18:34:48.762Z,32.08
2022-12-15T18:37:23.149Z,30.50
2022-12-15T18:39:50.510Z,33.53
2022-12-15T18:42:19.606Z,31.55
2022-12-15T18:44:49.315Z,33.83
2022-12-15T18:47:18.660Z,36.67
2022-12-15T18:49:45.734Z,37.00
2022-12-15T18:52:20.841Z,34.80
2022-12-15T18:54:49.582Z,34.78
2022-12-15T18:57:30.362Z,33.65
2022-12-15T19:00:18.533Z,32.75
2022-12-15T19:02:45.466Z,34.10
2022-12-15T19:05:27.065Z,37.08
2022-12-15T19:07:56.497Z,34.78
2022-12-15T19:10:23.888Z,34.58
2022-12-15T19:12:53.973Z,31.52
2022-12-15T19:15:25.074Z,35.22
2022-12-15T19:20:56.092Z,29.48
2022-12-15T19:23:22.972Z,36.33
2022-12-15T19:25:51.309Z,36.33
2022-12-15T19:28:21.035Z,36.15
2022-12-15T19:30:48.217Z,36.90
2022-12-15T19:33:16.533Z,37.22
2022-12-15T19:35:47.331Z,35.92
2022-12-15T19:38:24.873Z,34.67
2022-12-15T19:40:55.154Z,35.17
2022-12-15T19:43:23.312Z,31.38
2022-12-15T19:45:51.968Z,37.13
2022-12-15T19:48:23.306Z,32.13
2022-12-15T19:50:51.947Z,38.00
2022-12-15T19:53:26.162Z,40.05
2022-12-15T19:55:55.824Z,39.00
2022-12-15T19:58:27.705Z,41.85
2022-12-15T20:00:57.301Z,42.92
2022-12-15T20:03:24.709Z,44.85
2022-12-15T20:05:54.455Z,47.72
2022-12-15T20:08:26.488Z,47.20
2022-12-15T20:10:54.396Z,49.35
2022-12-15T20:13:21.725Z,53.05
2022-12-15T20:15:49.150Z,47.10
2022-12-15T20:18:15.970Z,46.38
2022-12-15T20:23:18.271Z,48.97
2022-12-15T20:25:45.392Z,48.35
2022-12-15T20:28:23.160Z,50.00
2022-12-15T20:30:50.362Z,50.83
2022-12-15T20:33:17.884Z,48.63
2022-12-15T20:35:46.813Z,47.83
2022-12-15T20:38:19.312Z,48.75
2022-12-15T20:40:46.109Z,47.55
2022-12-15T20:45:41.922Z,47.28
2022-12-15T20:48:13.515Z,47.13
2022-12-15T20:50:48.746Z,46.75
2022-12-15T20:53:21.539Z,49.13
2022-12-15T20:55:50.441Z,45.67
2022-12-15T20:58:17.821Z,46.83
2022-12-15T21:00:45.436Z,48.90
2022-12-15T21:03:36.132Z,48.50
2022-12-15T21:06:03.409Z,43.22
2022-12-15T21:11:19.551Z,41.60
2022-12-15T21:13:48.513Z,44.75
2022-12-15T21:16:21.348Z,51.83
2022-12-15T21:19:18.521Z,38.97
2022-12-15T21:21:38.261Z,36.60
2022-12-15T21:24:15.380Z,42.75
2022-12-15T21:26:42.647Z,42.55
2022-12-15T21:29:15.023Z,42.67
2022-12-15T21:31:42.169Z,44.25
2022-12-15T21:34:09.394Z,39.42
2022-12-15T21:36:37.554Z,52.95
2022-12-15T21:39:06.730Z,40.58
2022-12-15T21:41:34.076Z,56.83
2022-12-15T21:44:00.879Z,40.70
2022-12-15T21:52:01.347Z,41.42
2022-12-15T21:54:34.721Z,39.13
2022-12-15T21:57:02.696Z,41.83
2022-12-15T21:59:31.711Z,46.13
2022-12-15T22:02:00.641Z,37.17
2022-12-15T22:04:33.374Z,36.13
2022-12-15T22:07:00.216Z,38.88
2022-12-15T22:09:27.042Z,34.20
2022-12-15T22:14:25.178Z,32.80
2022-12-15T22:16:52.775Z,38.63
2022-12-15T22:19:20.063Z,34.20
2022-12-15T22:21:46.725Z,31.67
2022-12-15T22:24:14.081Z,31.70
2022-12-15T22:26:41.608Z,33.58
2022-12-15T22:29:16.599Z,36.05
2022-12-15T22:31:43.384Z,38.78
2022-12-15T22:36:47.852Z,32.03
2022-12-15T22:39:14.920Z,36.55
2022-12-15T22:41:44.417Z,35.47
2022-12-15T22:44:21.766Z,33.10
2022-12-15T22:46:50.018Z,33.88
2022-12-15T22:49:23.048Z,32.08
2022-12-15T22:51:49.794Z,30.77
2022-12-15T22:54:22.639Z,35.47
2022-12-15T22:56:53.572Z,31.63
2022-12-15T22:59:31.345Z,33.35
2022-12-15T23:01:58.396Z,32.45
2022-12-15T23:04:25.447Z,29.42
2022-12-15T23:06:52.227Z,28.75
2022-12-15T23:11:45.597Z,31.45
2022-12-15T23:16:40.630Z,24.33
2022-12-15T23:19:08.397Z,28.45
2022-12-15T23:21:35.811Z,26.88
2022-12-15T23:24:02.513Z,28.90
2022-12-15T23:28:55.782Z,25.27
2022-12-15T23:33:49.945Z,26.20
2022-12-15T23:36:19.177Z,26.13
2022-12-15T23:38:46.200Z,24.52
2022-12-15T23:41:17.408Z,25.17
2022-12-15T23:43:44.674Z,24.33
2022-12-15T23:46:11.708Z,28.20
2022-12-15T23:48:40.889Z,25.38
2022-12-15T23:51:16.498Z,24.27
2022-12-15T23:53:45.115Z,23.92
2022-12-15T23:56:20.600Z,24.55
2022-12-15T23:58:49.176Z,22.33
